Detall de PIREP

Printer-friendly versionPDF version

[2012/01/29 08:34:00]
Flight IATA:CT1025
Pilot Number:042
Company ICAO:CAT
Aircraft Type:B738/F
PAX:0
Departing Airport: CYYT
Destination Airport: BIKF
Alternate Airport:BIEG
Online: VATSIM
Route:YYT 5250N 5840N 6230N DROMI KEF
Flight Level:F350
No Slew and time accel
No pause
Crash detect
Detect pilot in Cockpit between each 30 and 45 minutes
08:34 Zero fuel Weight: 91661 Lbs, Fuel Weight: 46056 Lbs
08:34 VATSIM:CYYT 290800Z 30022G33KT 15SM -SN OVC009 M01/M02 A2956 RMK SF8 SLP015
08:34 VATSIM:BIKF 290800Z 19012KT 8000 BR FEW021 SCT026 BKN031 05/03 Q0999
08:34 VOICE CATALONIAN/BOEING TRANSPORT
08:39 Parking Brakes off
08:40 Take-off
08:40 Take off Weight: 137318 Lbs
08:40 Wind: 323º @ 022 Knots Heading: 270º
08:40 POS N47º 37´ 28´´ W052º 45´ 30´´
08:40 Flaps:5 at 166 Knots
08:40 Gear Up: 165 Knots
08:41 Flaps:4 at 158 Knots
08:41 Flaps:3 at 191 Knots
08:41 Flaps:2 at 212 Knots
08:41 Flaps:1 at 221 Knots
08:42 Flaps:0 at 225 Knots
08:55 Wind:306º@075 Knots Heading: 013º Ground Speed: 424 Knots Altitude 30479 ft
08:57 TOC
08:57 Fuel Weight: 42261 Lb
09:10 Wind:321º@056 Knots Heading: 016º Ground Speed: 406 Knots Altitude 34839 ft
09:25 Wind:337º@040 Knots Heading: 019º Ground Speed: 404 Knots Altitude 34875 ft
09:40 Wind:333º@032 Knots Heading: 037º Ground Speed: 419 Knots Altitude 34865 ft
09:55 Wind:341º@029 Knots Heading: 039º Ground Speed: 416 Knots Altitude 34845 ft
10:10 Wind:347º@022 Knots Heading: 042º Ground Speed: 417 Knots Altitude 34806 ft
10:25 Wind:312º@011 Knots Heading: 045º Ground Speed: 430 Knots Altitude 34701 ft
10:40 Wind:253º@010 Knots Heading: 045º Ground Speed: 440 Knots Altitude 34668 ft
10:55 Wind:199º@015 Knots Heading: 051º Ground Speed: 450 Knots Altitude 34609 ft
11:10 Wind:198º@021 Knots Heading: 054º Ground Speed: 455 Knots Altitude 34599 ft
11:25 Wind:198º@021 Knots Heading: 056º Ground Speed: 454 Knots Altitude 34596 ft
11:40 Wind:198º@021 Knots Heading: 060º Ground Speed: 453 Knots Altitude 34596 ft
11:41 TOD
11:41 Fuel Weight: 28020 Lb
11:55 Wind:215º@022 Knots Heading: 070º Ground Speed: 367 Knots Altitude 15334 ft
12:05 Flaps:1 at 201 Knots
12:05 Flaps:2 at 192 Knots
12:09 Flaps:3 at 169 Knots
12:09 Gear Down: 169 Knots
12:09 Flaps:5 at 169 Knots
12:09 Flaps:6 at 156 Knots
12:09 Flaps:7 at 154 Knots
12:09 Flaps:8 at 153 Knots
12:10 Wind:241º@006 Knots Heading: 267º Ground Speed: 132 Knots Altitude 2162 ft
12:12 TouchDown:Rate -502 ft/min Speed: 121 Knots
12:13 VATSIM:BIKF 291200Z 17005KT 9999 FEW011 BKN038 BKN090 03/01 Q1001
12:13 Land
12:13 Wind:192º@005 Knots
12:13 Heading: 269º
12:13 Flight Duration: 03:33
12:13 Landing Weight: 118085 Lbs
12:13 POS N63º 59´ 05´´ W022º 37´ 05´´
12:20 Parking brakes on
12:20 Block to Block Duration: 03:41
12:20 Final Fuel: 25782 Lbls
12:20 Spent Fuel: 20273 Lbls
12:20 Flight Length: 1402 NM
12:20 TOD Land Length: 126 NM

Exportar CSV

Powered by Drupal - Modified by Danger4k